Strona główna
METAR-TAF:

METAR-TAF

Lotnisko :

Ashtabula County Airport

Ashtabula, Ohio, Stany Zjednoczone

Szerokość geograficzna: 41-46-46N, Długość geograficzna: 080-41-48W, wysokość: 281 m

Aktualna obserwacja pogody

Raport powstał 24 minut temu, godzina 11:53 UTC
Wiatr 10 kt od zachodnio-południowy zachód
Temperatura 20°C
Wilgotność 88%
Ciśnienie 1011 hPa
Widzialność: 16.1 km
bezchmurnie

METAR: KHZY 251153Z AUTO 24010KT 10SM CLR 20/18 A2985 RMK AO2 SLP102 70057 T02000183 10206 20189 51020 $

czas: 08:17 (12:17 UTC)


TAF: brakujący

Obserwacja i prognoza pogody dla ponad 4000 lotnisk (raport METAR i TAF).

Dostępne stacje oznaczono żółtymi i czerwonymi punktami na mapie.

Najedź kursorem aby zobaczyć nazwę stacji.

Kliknij aby zobaczyć obserwacje i prognozy pogody.

Aby zmienić mapę: kliknij na zielony przycisk z czarnym krzyżykiem, aby powiększyć; na zielony przycisk z myślnikiem, aby pomniejszyć; na zielone strzałki, aby przejść do map sąsiednich.


METAR-TAF: